sensor_id;sensor_type;location;lat;lon;timestamp;pressure;altitude;pressure_sealevel;temperature;humidity
56928;BME280;60850;52.502;13.426;2022-12-31T00:01:26;100285.44;;;9.50;100.00
56928;BME280;60850;52.502;13.426;2022-12-31T00:03:54;100293.41;;;9.52;100.00
56928;BME280;60850;52.502;13.426;2022-12-31T00:06:24;100291.53;;;9.55;100.00
56928;BME280;60850;52.502;13.426;2022-12-31T00:08:53;100288.91;;;9.54;100.00
56928;BME280;60850;52.502;13.426;2022-12-31T00:11:22;100303.13;;;9.53;100.00
56928;BME280;60850;52.502;13.426;2022-12-31T00:13:52;100301.41;;;9.52;100.00
56928;BME280;60850;52.502;13.426;2022-12-31T00:16:21;100296.06;;;9.52;100.00
56928;BME280;60850;52.502;13.426;2022-12-31T00:18:51;100296.97;;;9.51;100.00
56928;BME280;60850;52.502;13.426;2022-12-31T00:21:20;100305.91;;;9.48;100.00
56928;BME280;60850;52.502;13.426;2022-12-31T00:23:47;100304.22;;;9.46;100.00
56928;BME280;60850;52.502;13.426;2022-12-31T00:26:16;100320.19;;;9.46;100.00
56928;BME280;60850;52.502;13.426;2022-12-31T00:28:44;100323.56;;;9.52;100.00
56928;BME280;60850;52.502;13.426;2022-12-31T00:31:14;100319.88;;;9.56;100.00
56928;BME280;60850;52.502;13.426;2022-12-31T00:33:45;100311.94;;;9.55;100.00
56928;BME280;60850;52.502;13.426;2022-12-31T00:36:13;100321.66;;;9.56;100.00
56928;BME280;60850;52.502;13.426;2022-12-31T00:38:42;100319.00;;;9.56;100.00
56928;BME280;60850;52.502;13.426;2022-12-31T00:41:09;100318.25;;;9.51;100.00
56928;BME280;60850;52.502;13.426;2022-12-31T00:43:37;100313.81;;;9.51;100.00
56928;BME280;60850;52.502;13.426;2022-12-31T00:46:05;100317.47;;;9.47;100.00
56928;BME280;60850;52.502;13.426;2022-12-31T00:48:34;100305.41;;;9.35;100.00
56928;BME280;60850;52.502;13.426;2022-12-31T00:51:03;100313.00;;;9.18;100.00
56928;BME280;60850;52.502;13.426;2022-12-31T00:53:31;100313.44;;;9.01;100.00
56928;BME280;60850;52.502;13.426;2022-12-31T00:55:59;100317.31;;;8.90;100.00
56928;BME280;60850;52.502;13.426;2022-12-31T00:58:27;100327.19;;;8.85;100.00
56928;BME280;60850;52.502;13.426;2022-12-31T01:00:54;100320.28;;;8.77;100.00
56928;BME280;60850;52.502;13.426;2022-12-31T01:03:22;100329.06;;;8.81;100.00
56928;BME280;60850;52.502;13.426;2022-12-31T01:05:51;100341.59;;;8.76;100.00
56928;BME280;60850;52.502;13.426;2022-12-31T01:08:18;100340.75;;;8.74;100.00
56928;BME280;60850;52.502;13.426;2022-12-31T01:10:47;100351.31;;;8.77;100.00
56928;BME280;60850;52.502;13.426;2022-12-31T01:13:33;100352.03;;;8.84;100.00
56928;BME280;60850;52.502;13.426;2022-12-31T01:16:06;100365.22;;;8.88;100.00
56928;BME280;60850;52.502;13.426;2022-12-31T01:18:33;100364.91;;;8.99;100.00
56928;BME280;60850;52.502;13.426;2022-12-31T01:21:03;100362.84;;;9.10;100.00
56928;BME280;60850;52.502;13.426;2022-12-31T01:23:30;100362.66;;;9.18;100.00
56928;BME280;60850;52.502;13.426;2022-12-31T01:25:59;100350.06;;;9.23;100.00
56928;BME280;60850;52.502;13.426;2022-12-31T01:28:26;100354.47;;;9.25;100.00
56928;BME280;60850;52.502;13.426;2022-12-31T01:30:53;100367.50;;;9.34;100.00
56928;BME280;60850;52.502;13.426;2022-12-31T01:33:21;100370.97;;;9.38;100.00
56928;BME280;60850;52.502;13.426;2022-12-31T01:35:48;100358.38;;;9.43;100.00
56928;BME280;60850;52.502;13.426;2022-12-31T01:38:16;100351.16;;;9.48;100.00
56928;BME280;60850;52.502;13.426;2022-12-31T01:40:43;100367.94;;;9.50;100.00
56928;BME280;60850;52.502;13.426;2022-12-31T01:43:14;100368.69;;;9.55;100.00
56928;BME280;60850;52.502;13.426;2022-12-31T01:45:42;100373.84;;;9.61;100.00
56928;BME280;60850;52.502;13.426;2022-12-31T01:48:11;100377.16;;;9.70;100.00
56928;BME280;60850;52.502;13.426;2022-12-31T01:50:41;100383.34;;;9.70;100.00
56928;BME280;60850;52.502;13.426;2022-12-31T01:53:10;100373.41;;;9.77;100.00
56928;BME280;60850;52.502;13.426;2022-12-31T01:55:44;100379.38;;;9.85;100.00
56928;BME280;60850;52.502;13.426;2022-12-31T01:58:15;100387.22;;;9.89;100.00
56928;BME280;60850;52.502;13.426;2022-12-31T02:00:43;100385.22;;;9.98;100.00
56928;BME280;60850;52.502;13.426;2022-12-31T02:03:11;100369.97;;;10.03;100.00
56928;BME280;60850;52.502;13.426;2022-12-31T02:05:44;100381.22;;;10.12;100.00
56928;BME280;60850;52.502;13.426;2022-12-31T02:08:12;100380.28;;;10.13;100.00
56928;BME280;60850;52.502;13.426;2022-12-31T02:10:41;100386.47;;;10.15;100.00
56928;BME280;60850;52.502;13.426;2022-12-31T02:13:08;100389.78;;;10.24;100.00
56928;BME280;60850;52.502;13.426;2022-12-31T02:15:47;100395.00;;;10.27;100.00
56928;BME280;60850;52.502;13.426;2022-12-31T02:18:24;100388.53;;;10.35;100.00
56928;BME280;60850;52.502;13.426;2022-12-31T02:21:10;100390.28;;;10.36;100.00
56928;BME280;60850;52.502;13.426;2022-12-31T02:26:57;100397.19;;;10.43;100.00
56928;BME280;60850;52.502;13.426;2022-12-31T02:32:29;100392.66;;;10.45;100.00
56928;BME280;60850;52.502;13.426;2022-12-31T02:35:00;100391.84;;;10.43;100.00
56928;BME280;60850;52.502;13.426;2022-12-31T02:37:31;100379.53;;;10.39;100.00
56928;BME280;60850;52.502;13.426;2022-12-31T02:40:02;100382.31;;;10.36;100.00
56928;BME280;60850;52.502;13.426;2022-12-31T02:42:29;100377.06;;;10.33;100.00
56928;BME280;60850;52.502;13.426;2022-12-31T02:44:56;100372.66;;;10.32;100.00
56928;BME280;60850;52.502;13.426;2022-12-31T02:47:35;100384.41;;;10.25;100.00
56928;BME280;60850;52.502;13.426;2022-12-31T02:50:18;100385.34;;;10.24;100.00
56928;BME280;60850;52.502;13.426;2022-12-31T02:52:53;100387.94;;;10.26;100.00
56928;BME280;60850;52.502;13.426;2022-12-31T02:55:29;100371.03;;;10.27;100.00
56928;BME280;60850;52.502;13.426;2022-12-31T02:58:06;100385.16;;;10.29;100.00
56928;BME280;60850;52.502;13.426;2022-12-31T03:00:39;100389.63;;;10.30;100.00
56928;BME280;60850;52.502;13.426;2022-12-31T03:03:28;100385.34;;;10.24;100.00
56928;BME280;60850;52.502;13.426;2022-12-31T03:05:56;100383.81;;;10.15;100.00
56928;BME280;60850;52.502;13.426;2022-12-31T03:08:25;100379.38;;;10.14;100.00
56928;BME280;60850;52.502;13.426;2022-12-31T03:10:52;100382.88;;;10.16;100.00
56928;BME280;60850;52.502;13.426;2022-12-31T03:13:21;100386.47;;;10.15;100.00
56928;BME280;60850;52.502;13.426;2022-12-31T03:15:47;100378.72;;;10.08;100.00
56928;BME280;60850;52.502;13.426;2022-12-31T03:18:16;100378.78;;;10.05;100.00
56928;BME280;60850;52.502;13.426;2022-12-31T03:21:11;100378.72;;;10.08;100.00
56928;BME280;60850;52.502;13.426;2022-12-31T03:23:56;100381.38;;;10.08;100.00
56928;BME280;60850;52.502;13.426;2022-12-31T03:26:40;100376.75;;;10.13;100.00
56928;BME280;60850;52.502;13.426;2022-12-31T03:29:07;100376.63;;;10.17;100.00
56928;BME280;60850;52.502;13.426;2022-12-31T03:31:34;100369.56;;;10.16;100.00
56928;BME280;60850;52.502;13.426;2022-12-31T03:34:01;100366.91;;;10.16;100.00
56928;BME280;60850;52.502;13.426;2022-12-31T03:36:30;100367.63;;;10.23;100.00
56928;BME280;60850;52.502;13.426;2022-12-31T03:38:57;100373.16;;;10.14;100.00
56928;BME280;60850;52.502;13.426;2022-12-31T03:41:24;100374.97;;;10.13;100.00
56928;BME280;60850;52.502;13.426;2022-12-31T03:43:51;100376.88;;;10.10;100.00
56928;BME280;60850;52.502;13.426;2022-12-31T03:46:18;100365.97;;;10.17;100.00
56928;BME280;60850;52.502;13.426;2022-12-31T03:48:45;100368.63;;;10.17;100.00
56928;BME280;60850;52.502;13.426;2022-12-31T03:51:12;100352.50;;;10.24;100.00
56928;BME280;60850;52.502;13.426;2022-12-31T03:53:41;100346.19;;;10.26;100.00
56928;BME280;60850;52.502;13.426;2022-12-31T03:56:08;100339.81;;;10.32;100.00
56928;BME280;60850;52.502;13.426;2022-12-31T03:58:35;100339.81;;;10.32;100.00
56928;BME280;60850;52.502;13.426;2022-12-31T04:01:03;100329.88;;;10.37;100.00
56928;BME280;60850;52.502;13.426;2022-12-31T04:03:29;100331.69;;;10.35;100.00
56928;BME280;60850;52.502;13.426;2022-12-31T04:05:57;100336.78;;;10.42;100.00
56928;BME280;60850;52.502;13.426;2022-12-31T04:08:24;100335.16;;;10.38;100.00
56928;BME280;60850;52.502;13.426;2022-12-31T04:10:52;100342.09;;;10.42;100.00
56928;BME280;60850;52.502;13.426;2022-12-31T04:13:19;100341.16;;;10.45;100.00
56928;BME280;60850;52.502;13.426;2022-12-31T04:15:48;100341.84;;;10.52;100.00
56928;BME280;60850;52.502;13.426;2022-12-31T04:18:15;100345.06;;;10.61;100.00
56928;BME280;60850;52.502;13.426;2022-12-31T04:20:42;100352.97;;;10.64;100.00
56928;BME280;60850;52.502;13.426;2022-12-31T04:23:09;100338.75;;;10.64;100.00
56928;BME280;60850;52.502;13.426;2022-12-31T04:25:36;100344.75;;;10.70;100.00
56928;BME280;60850;52.502;13.426;2022-12-31T04:28:05;100341.06;;;10.75;100.00
56928;BME280;60850;52.502;13.426;2022-12-31T04:30:32;100340.91;;;10.79;100.00
56928;BME280;60850;52.502;13.426;2022-12-31T04:32:59;100335.47;;;10.82;100.00
56928;BME280;60850;52.502;13.426;2022-12-31T04:35:26;100350.19;;;10.94;100.00
56928;BME280;60850;52.502;13.426;2022-12-31T04:37:53;100349.19;;;10.96;100.00
56928;BME280;60850;52.502;13.426;2022-12-31T04:40:20;100341.88;;;11.03;100.00
56928;BME280;60850;52.502;13.426;2022-12-31T04:42:47;100348.84;;;11.07;100.00
56928;BME280;60850;52.502;13.426;2022-12-31T04:45:15;100343.50;;;11.07;100.00
56928;BME280;60850;52.502;13.426;2022-12-31T04:47:42;100343.53;;;11.06;100.00
56928;BME280;60850;52.502;13.426;2022-12-31T04:50:09;100331.25;;;11.02;100.00
56928;BME280;60850;52.502;13.426;2022-12-31T04:52:36;100329.31;;;11.07;100.00
56928;BME280;60850;52.502;13.426;2022-12-31T04:55:04;100316.66;;;11.12;100.00
56928;BME280;60850;52.502;13.426;2022-12-31T04:57:31;100294.72;;;11.04;100.00
56928;BME280;60850;52.502;13.426;2022-12-31T04:59:58;100305.16;;;11.10;100.00
56928;BME280;60850;52.502;13.426;2022-12-31T05:02:28;100300.78;;;11.09;100.00
56928;BME280;60850;52.502;13.426;2022-12-31T05:04:55;100303.38;;;11.10;100.00
56928;BME280;60850;52.502;13.426;2022-12-31T05:07:22;100297.97;;;11.12;100.00
56928;BME280;60850;52.502;13.426;2022-12-31T05:09:49;100303.16;;;11.16;100.00
56928;BME280;60850;52.502;13.426;2022-12-31T05:12:16;100304.16;;;11.14;100.00
56928;BME280;60850;52.502;13.426;2022-12-31T05:14:44;100297.75;;;11.18;100.00
56928;BME280;60850;52.502;13.426;2022-12-31T05:17:10;100300.38;;;11.19;100.00
56928;BME280;60850;52.502;13.426;2022-12-31T05:19:39;100292.28;;;11.22;100.00
56928;BME280;60850;52.502;13.426;2022-12-31T05:22:06;100298.34;;;11.26;100.00
56928;BME280;60850;52.502;13.426;2022-12-31T05:24:49;100311.69;;;11.26;100.00
56928;BME280;60850;52.502;13.426;2022-12-31T05:27:16;100307.13;;;11.30;100.00
56928;BME280;60850;52.502;13.426;2022-12-31T05:29:43;100309.50;;;11.37;100.00
56928;BME280;60850;52.502;13.426;2022-12-31T05:32:10;100307.50;;;11.44;100.00
56928;BME280;60850;52.502;13.426;2022-12-31T05:34:39;100302.81;;;11.50;100.00
56928;BME280;60850;52.502;13.426;2022-12-31T05:37:06;100313.34;;;11.53;100.00
56928;BME280;60850;52.502;13.426;2022-12-31T05:39:33;100324.16;;;11.50;100.00
56928;BME280;60850;52.502;13.426;2022-12-31T05:42:00;100333.97;;;11.50;100.00
56928;BME280;60850;52.502;13.426;2022-12-31T05:44:27;100312.78;;;11.45;100.00
56928;BME280;60850;52.502;13.426;2022-12-31T05:46:54;100303.09;;;11.43;100.00
56928;BME280;60850;52.502;13.426;2022-12-31T05:49:21;100290.03;;;11.35;100.00
56928;BME280;60850;52.502;13.426;2022-12-31T05:51:50;100284.69;;;11.35;100.00
56928;BME280;60850;52.502;13.426;2022-12-31T05:54:17;100281.19;;;11.33;100.00
56928;BME280;60850;52.502;13.426;2022-12-31T05:56:44;100282.34;;;11.26;100.00
56928;BME280;60850;52.502;13.426;2022-12-31T05:59:11;100275.97;;;11.30;100.00
56928;BME280;60850;52.502;13.426;2022-12-31T06:01:38;100278.56;;;11.32;100.00
56928;BME280;60850;52.502;13.426;2022-12-31T06:04:05;100280.25;;;11.34;100.00
56928;BME280;60850;52.502;13.426;2022-12-31T06:06:32;100268.72;;;11.34;100.00
56928;BME280;60850;52.502;13.426;2022-12-31T06:09:01;100266.91;;;11.34;100.00
56928;BME280;60850;52.502;13.426;2022-12-31T06:11:28;100261.56;;;11.34;100.00
56928;BME280;60850;52.502;13.426;2022-12-31T06:13:55;100261.47;;;11.37;100.00
56928;BME280;60850;52.502;13.426;2022-12-31T06:16:23;100256.13;;;11.37;100.00
56928;BME280;60850;52.502;13.426;2022-12-31T06:18:50;100256.94;;;11.39;100.00
56928;BME280;60850;52.502;13.426;2022-12-31T06:21:18;100246.41;;;11.36;100.00
56928;BME280;60850;52.502;13.426;2022-12-31T06:23:46;100231.34;;;11.34;100.00
56928;BME280;60850;52.502;13.426;2022-12-31T06:26:14;100244.66;;;11.35;100.00
56928;BME280;60850;52.502;13.426;2022-12-31T06:28:42;100245.34;;;11.40;100.00
56928;BME280;60850;52.502;13.426;2022-12-31T06:31:11;100249.47;;;11.49;100.00
56928;BME280;60850;52.502;13.426;2022-12-31T06:33:39;100251.00;;;11.54;100.00
56928;BME280;60850;52.502;13.426;2022-12-31T06:36:09;100240.91;;;11.63;100.00
56928;BME280;60850;52.502;13.426;2022-12-31T06:38:38;100244.34;;;11.66;100.00
56928;BME280;60850;52.502;13.426;2022-12-31T06:41:08;100246.00;;;11.69;100.00
56928;BME280;60850;52.502;13.426;2022-12-31T06:43:38;100239.88;;;11.67;100.00
56928;BME280;60850;52.502;13.426;2022-12-31T06:46:07;100237.66;;;11.78;100.00
56928;BME280;60850;52.502;13.426;2022-12-31T06:48:34;100239.28;;;11.82;100.00
56928;BME280;60850;52.502;13.426;2022-12-31T06:51:02;100257.69;;;11.90;100.00
56928;BME280;60850;52.502;13.426;2022-12-31T06:53:30;100251.41;;;11.91;100.00
56928;BME280;60850;52.502;13.426;2022-12-31T06:55:57;100230.88;;;11.93;100.00
56928;BME280;60850;52.502;13.426;2022-12-31T06:58:25;100232.28;;;12.01;100.00
56928;BME280;60850;52.502;13.426;2022-12-31T07:01:00;100235.66;;;12.06;100.00
56928;BME280;60850;52.502;13.426;2022-12-31T07:03:35;100231.13;;;12.08;100.00
56928;BME280;60850;52.502;13.426;2022-12-31T07:06:08;100233.59;;;12.13;100.00
56928;BME280;60850;52.502;13.426;2022-12-31T07:08:46;100219.06;;;12.20;100.00
56928;BME280;60850;52.502;13.426;2022-12-31T07:11:20;100226.63;;;12.31;100.00
56928;BME280;60850;52.502;13.426;2022-12-31T07:14:02;100220.94;;;12.38;100.00
56928;BME280;60850;52.502;13.426;2022-12-31T07:16:49;100221.69;;;12.42;100.00
56928;BME280;60850;52.502;13.426;2022-12-31T07:19:28;100215.94;;;12.51;100.00
56928;BME280;60850;52.502;13.426;2022-12-31T07:21:59;100226.72;;;12.50;100.00
56928;BME280;60850;52.502;13.426;2022-12-31T07:24:28;100218.63;;;12.51;100.00
56928;BME280;60850;52.502;13.426;2022-12-31T07:27:06;100210.53;;;12.53;100.00
56928;BME280;60850;52.502;13.426;2022-12-31T07:29:50;100214.63;;;12.61;100.00
56928;BME280;60850;52.502;13.426;2022-12-31T07:32:32;100225.97;;;12.67;100.00
56928;BME280;60850;52.502;13.426;2022-12-31T07:35:08;100224.94;;;12.71;100.00
56928;BME280;60850;52.502;13.426;2022-12-31T07:37:43;100225.59;;;12.76;100.00
56928;BME280;60850;52.502;13.426;2022-12-31T07:40:13;100215.69;;;12.78;100.00
56928;BME280;60850;52.502;13.426;2022-12-31T07:42:52;100223.38;;;12.85;100.00
56928;BME280;60850;52.502;13.426;2022-12-31T07:45:28;100229.44;;;12.89;100.00
56928;BME280;60850;52.502;13.426;2022-12-31T07:48:01;100212.25;;;12.95;100.00
56928;BME280;60850;52.502;13.426;2022-12-31T07:50:29;100212.06;;;12.99;100.00
56928;BME280;60850;52.502;13.426;2022-12-31T07:52:56;100232.25;;;13.06;100.00
56928;BME280;60850;52.502;13.426;2022-12-31T07:55:23;100239.16;;;13.12;100.00
56928;BME280;60850;52.502;13.426;2022-12-31T07:57:54;100242.44;;;13.18;100.00
56928;BME280;60850;52.502;13.426;2022-12-31T08:00:23;100235.94;;;13.24;100.00
56928;BME280;60850;52.502;13.426;2022-12-31T08:03:09;100248.09;;;13.31;100.00
56928;BME280;60850;52.502;13.426;2022-12-31T08:05:47;100247.75;;;13.39;100.00
56928;BME280;60850;52.502;13.426;2022-12-31T08:08:23;100255.50;;;13.45;100.00
56928;BME280;60850;52.502;13.426;2022-12-31T08:11:02;100239.97;;;13.53;100.00
56928;BME280;60850;52.502;13.426;2022-12-31T08:13:32;100247.84;;;13.56;100.00
56928;BME280;60850;52.502;13.426;2022-12-31T08:16:01;100246.78;;;13.60;100.00
56928;BME280;60850;52.502;13.426;2022-12-31T08:18:29;100242.72;;;13.70;100.00
56928;BME280;60850;52.502;13.426;2022-12-31T08:21:03;100248.72;;;13.76;100.00
56928;BME280;60850;52.502;13.426;2022-12-31T08:23:39;100241.31;;;13.81;100.00
56928;BME280;60850;52.502;13.426;2022-12-31T08:26:24;100232.28;;;13.83;100.00
56928;BME280;60850;52.502;13.426;2022-12-31T08:29:03;100248.00;;;13.91;100.00
56928;BME280;60850;52.502;13.426;2022-12-31T08:31:40;100248.50;;;13.99;100.00
56928;BME280;60850;52.502;13.426;2022-12-31T08:34:18;100239.22;;;14.06;100.00
56928;BME280;60850;52.502;13.426;2022-12-31T08:36:52;100240.72;;;14.12;100.00
56928;BME280;60850;52.502;13.426;2022-12-31T08:39:31;100238.63;;;14.18;100.00
56928;BME280;60850;52.502;13.426;2022-12-31T08:42:02;100238.38;;;14.23;100.00
56928;BME280;60850;52.502;13.426;2022-12-31T08:44:34;100255.88;;;14.30;100.00
56928;BME280;60850;52.502;13.426;2022-12-31T08:47:08;100245.59;;;14.40;100.00
56928;BME280;60850;52.502;13.426;2022-12-31T08:49:42;100248.09;;;14.43;100.00
56928;BME280;60850;52.502;13.426;2022-12-31T08:52:14;100252.03;;;14.54;100.00
56928;BME280;60850;52.502;13.426;2022-12-31T08:54:43;100253.53;;;14.60;100.00
56928;BME280;60850;52.502;13.426;2022-12-31T08:57:16;100246.09;;;14.65;100.00
56928;BME280;60850;52.502;13.426;2022-12-31T08:59:51;100266.38;;;14.71;100.00
56928;BME280;60850;52.502;13.426;2022-12-31T09:02:49;100258.91;;;14.77;100.00
56928;BME280;60850;52.502;13.426;2022-12-31T09:05:22;100257.88;;;14.80;100.00
56928;BME280;60850;52.502;13.426;2022-12-31T09:08:01;100266.31;;;14.90;100.00
56928;BME280;60850;52.502;13.426;2022-12-31T09:10:32;100272.56;;;14.90;100.00
56928;BME280;60850;52.502;13.426;2022-12-31T09:13:10;100271.06;;;15.02;100.00
56928;BME280;60850;52.502;13.426;2022-12-31T09:15:42;100275.28;;;15.06;100.00
56928;BME280;60850;52.502;13.426;2022-12-31T09:18:11;100263.38;;;15.11;100.00
56928;BME280;60850;52.502;13.426;2022-12-31T09:20:41;100255.88;;;15.18;100.00
56928;BME280;60850;52.502;13.426;2022-12-31T09:23:09;100251.72;;;15.28;100.00
56928;BME280;60850;52.502;13.426;2022-12-31T09:25:41;100253.59;;;15.44;100.00
56928;BME280;60850;52.502;13.426;2022-12-31T09:28:15;100257.03;;;15.63;100.00
56928;BME280;60850;52.502;13.426;2022-12-31T09:30:49;100254.81;;;15.87;100.00
56928;BME280;60850;52.502;13.426;2022-12-31T09:33:29;100249.59;;;16.00;100.00
56928;BME280;60850;52.502;13.426;2022-12-31T09:36:04;100238.00;;;16.15;100.00
56928;BME280;60850;52.502;13.426;2022-12-31T09:38:36;100249.06;;;16.25;100.00
56928;BME280;60850;52.502;13.426;2022-12-31T09:41:12;100258.69;;;16.44;100.00
56928;BME280;60850;52.502;13.426;2022-12-31T09:47:20;100247.50;;;16.36;100.00
56928;BME280;60850;52.502;13.426;2022-12-31T09:56:04;100247.00;;;16.60;100.00
56928;BME280;60850;52.502;13.426;2022-12-31T09:58:42;100232.41;;;16.80;100.00
56928;BME280;60850;52.502;13.426;2022-12-31T10:01:20;100245.50;;;16.86;100.00
56928;BME280;60850;52.502;13.426;2022-12-31T10:04:09;100219.06;;;16.92;100.00
56928;BME280;60850;52.502;13.426;2022-12-31T10:06:51;100227.81;;;16.96;100.00
56928;BME280;60850;52.502;13.426;2022-12-31T10:09:40;100244.22;;;16.91;100.00
56928;BME280;60850;52.502;13.426;2022-12-31T10:12:38;100249.78;;;16.74;100.00
56928;BME280;60850;52.502;13.426;2022-12-31T10:15:20;100234.69;;;16.56;100.00
56928;BME280;60850;52.502;13.426;2022-12-31T10:17:57;100248.53;;;16.50;100.00
56928;BME280;60850;52.502;13.426;2022-12-31T10:20:35;100251.13;;;16.51;100.00
56928;BME280;60850;52.502;13.426;2022-12-31T10:26:28;100267.09;;;16.38;100.00
56928;BME280;60850;52.502;13.426;2022-12-31T10:29:13;100259.56;;;16.29;100.00
56928;BME280;60850;52.502;13.426;2022-12-31T10:31:58;100277.53;;;16.29;100.00
56928;BME280;60850;52.502;13.426;2022-12-31T10:34:36;100279.84;;;16.35;100.00
56928;BME280;60850;52.502;13.426;2022-12-31T10:37:09;100268.94;;;16.38;100.00
56928;BME280;60850;52.502;13.426;2022-12-31T10:39:47;100266.59;;;16.32;100.00
56928;BME280;60850;52.502;13.426;2022-12-31T10:42:54;100292.00;;;16.26;100.00
56928;BME280;60850;52.502;13.426;2022-12-31T10:46:16;100297.59;;;16.23;100.00
56928;BME280;60850;52.502;13.426;2022-12-31T10:49:06;100300.28;;;16.23;100.00
56928;BME280;60850;52.502;13.426;2022-12-31T10:57:56;100313.97;;;16.18;100.00
56928;BME280;60850;52.502;13.426;2022-12-31T11:00:29;100311.56;;;16.14;100.00
56928;BME280;60850;52.502;13.426;2022-12-31T11:09:40;100327.50;;;16.17;100.00
56928;BME280;60850;52.502;13.426;2022-12-31T11:12:25;100331.16;;;16.16;100.00
56928;BME280;60850;52.502;13.426;2022-12-31T11:15:13;100332.78;;;16.18;100.00
56928;BME280;60850;52.502;13.426;2022-12-31T11:17:52;100332.78;;;16.18;100.00
56928;BME280;60850;52.502;13.426;2022-12-31T11:20:37;100334.63;;;16.18;100.00
56928;BME280;60850;52.502;13.426;2022-12-31T11:23:17;100328.28;;;16.19;100.00
56928;BME280;60850;52.502;13.426;2022-12-31T11:25:56;100326.47;;;16.19;100.00
56928;BME280;60850;52.502;13.426;2022-12-31T11:28:46;100328.19;;;16.20;100.00
56928;BME280;60850;52.502;13.426;2022-12-31T11:31:31;100326.03;;;16.27;100.00
56928;BME280;60850;52.502;13.426;2022-12-31T11:34:16;100333.94;;;16.30;100.00
56928;BME280;60850;52.502;13.426;2022-12-31T11:37:00;100320.22;;;16.35;100.00
56928;BME280;60850;52.502;13.426;2022-12-31T11:39:46;100315.72;;;16.35;100.00
56928;BME280;60850;52.502;13.426;2022-12-31T11:42:20;100312.75;;;16.40;100.00
56928;BME280;60850;52.502;13.426;2022-12-31T11:44:54;100302.53;;;16.31;100.00
56928;BME280;60850;52.502;13.426;2022-12-31T11:47:49;100301.38;;;16.35;100.00
56928;BME280;60850;52.502;13.426;2022-12-31T11:50:25;100294.19;;;16.35;100.00
56928;BME280;60850;52.502;13.426;2022-12-31T11:53:02;100297.03;;;16.32;100.00
56928;BME280;60850;52.502;13.426;2022-12-31T11:55:40;100304.88;;;16.37;100.00
56928;BME280;60850;52.502;13.426;2022-12-31T11:58:12;100291.50;;;16.35;100.00
56928;BME280;60850;52.502;13.426;2022-12-31T12:00:44;100291.31;;;16.38;100.00
56928;BME280;60850;52.502;13.426;2022-12-31T12:03:15;100285.13;;;16.52;100.00
56928;BME280;60850;52.502;13.426;2022-12-31T12:05:42;100293.53;;;16.62;100.00
56928;BME280;60850;52.502;13.426;2022-12-31T12:08:10;100301.13;;;16.71;100.00
56928;BME280;60850;52.502;13.426;2022-12-31T12:10:41;100296.16;;;16.79;100.00
56928;BME280;60850;52.502;13.426;2022-12-31T12:13:20;100300.38;;;16.83;100.00
56928;BME280;60850;52.502;13.426;2022-12-31T12:15:49;100297.31;;;16.89;100.00
56928;BME280;60850;52.502;13.426;2022-12-31T12:18:33;100303.31;;;16.94;100.00
56928;BME280;60850;52.502;13.426;2022-12-31T12:21:09;100294.41;;;17.08;100.00
56928;BME280;60850;52.502;13.426;2022-12-31T12:23:37;100293.34;;;17.11;100.00
56928;BME280;60850;52.502;13.426;2022-12-31T12:26:05;100300.75;;;17.07;100.00
56928;BME280;60850;52.502;13.426;2022-12-31T12:28:44;100294.66;;;17.03;100.00
56928;BME280;60850;52.502;13.426;2022-12-31T12:31:19;100299.38;;;17.00;100.00
56928;BME280;60850;52.502;13.426;2022-12-31T12:33:49;100290.25;;;17.02;100.00
56928;BME280;60850;52.502;13.426;2022-12-31T12:36:18;100285.72;;;17.03;100.00
56928;BME280;60850;52.502;13.426;2022-12-31T12:38:46;100290.25;;;17.02;100.00
56928;BME280;60850;52.502;13.426;2022-12-31T12:41:18;100291.31;;;17.00;100.00
56928;BME280;60850;52.502;13.426;2022-12-31T12:43:46;100287.44;;;17.04;100.00
56928;BME280;60850;52.502;13.426;2022-12-31T12:46:29;100294.09;;;16.98;100.00
56928;BME280;60850;52.502;13.426;2022-12-31T12:48:59;100285.72;;;17.03;100.00
56928;BME280;60850;52.502;13.426;2022-12-31T12:51:35;100289.56;;;16.99;100.00
56928;BME280;60850;52.502;13.426;2022-12-31T12:54:17;100281.56;;;16.97;100.00
56928;BME280;60850;52.502;13.426;2022-12-31T12:56:51;100275.16;;;17.00;100.00
56928;BME280;60850;52.502;13.426;2022-12-31T12:59:49;100281.41;;;17.00;100.00
56928;BME280;60850;52.502;13.426;2022-12-31T13:02:48;100278.69;;;17.00;100.00
56928;BME280;60850;52.502;13.426;2022-12-31T13:05:28;100284.34;;;16.96;100.00
56928;BME280;60850;52.502;13.426;2022-12-31T13:08:07;100281.75;;;16.94;100.00
56928;BME280;60850;52.502;13.426;2022-12-31T13:13:38;100273.47;;;16.97;100.00
56928;BME280;60850;52.502;13.426;2022-12-31T13:16:15;100278.97;;;16.96;100.00
56928;BME280;60850;52.502;13.426;2022-12-31T13:18:53;100281.56;;;16.97;100.00
56928;BME280;60850;52.502;13.426;2022-12-31T13:21:36;100292.53;;;16.94;100.00
56928;BME280;60850;52.502;13.426;2022-12-31T13:24:15;100288.97;;;16.94;100.00
56928;BME280;60850;52.502;13.426;2022-12-31T13:26:49;100295.50;;;16.90;100.00
56928;BME280;60850;52.502;13.426;2022-12-31T13:29:21;100303.47;;;16.91;100.00
56928;BME280;60850;52.502;13.426;2022-12-31T13:31:50;100308.19;;;16.88;100.00
56928;BME280;60850;52.502;13.426;2022-12-31T13:34:21;100297.41;;;16.88;100.00